Terminal Aerodrome Forecast
Issued by NWS Billings, MT

Home | Current Version | Previous Version | Text Only | Print | Product List | Glossary On
Versions: 1 2 3 4 5 6 7 8 9 10 11 12 13 14 15 16 17 18 19 20 21 22 23
000
FTUS45 KBYZ 190011 AAB
TAFBIL
TAF AMD
KBIL 190011Z 1900/1924 33022G32KT P6SM VCSH SCT060CB BKN090
     FM190200 31016G26KT P6SM VCSH BKN080
     FM190400 29010KT P6SM SCT080
     FM190700 24011KT P6SM FEW120=

USA.gov is the U.S. government's official web portal to all federal, state and local government web resources and services.